sensor_id;sensor_type;location;lat;lon;timestamp;P1;durP1;ratioP1;P2;durP2;ratioP2
53513;SDS011;39768;54.148;12.174;2023-05-02T00:01:12;5.35;;;1.40;;
53513;SDS011;39768;54.148;12.174;2023-05-02T00:05:13;3.03;;;1.33;;
53513;SDS011;39768;54.148;12.174;2023-05-02T00:09:15;3.58;;;1.88;;
53513;SDS011;39768;54.148;12.174;2023-05-02T00:13:17;1.13;;;1.00;;
53513;SDS011;39768;54.148;12.174;2023-05-02T00:17:18;5.78;;;1.33;;
53513;SDS011;39768;54.148;12.174;2023-05-02T00:21:20;1.52;;;1.35;;
53513;SDS011;39768;54.148;12.174;2023-05-02T00:25:22;2.38;;;1.33;;
53513;SDS011;39768;54.148;12.174;2023-05-02T00:29:23;2.75;;;1.40;;
53513;SDS011;39768;54.148;12.174;2023-05-02T00:33:25;5.70;;;2.30;;
53513;SDS011;39768;54.148;12.174;2023-05-02T00:37:26;4.80;;;2.38;;
53513;SDS011;39768;54.148;12.174;2023-05-02T00:41:28;1.77;;;1.30;;
53513;SDS011;39768;54.148;12.174;2023-05-02T00:45:30;2.72;;;1.60;;
53513;SDS011;39768;54.148;12.174;2023-05-02T00:49:33;3.35;;;1.80;;
53513;SDS011;39768;54.148;12.174;2023-05-02T00:53:34;2.00;;;1.27;;
53513;SDS011;39768;54.148;12.174;2023-05-02T00:57:36;1.55;;;1.45;;
53513;SDS011;39768;54.148;12.174;2023-05-02T01:01:46;2.65;;;2.20;;
53513;SDS011;39768;54.148;12.174;2023-05-02T01:06:10;2.97;;;2.10;;
53513;SDS011;39768;54.148;12.174;2023-05-02T01:10:31;4.25;;;2.40;;
53513;SDS011;39768;54.148;12.174;2023-05-02T01:14:49;4.45;;;1.92;;
53513;SDS011;39768;54.148;12.174;2023-05-02T01:18:55;4.80;;;2.55;;
53513;SDS011;39768;54.148;12.174;2023-05-02T01:23:02;3.17;;;1.92;;
53513;SDS011;39768;54.148;12.174;2023-05-02T01:27:14;4.20;;;2.35;;
53513;SDS011;39768;54.148;12.174;2023-05-02T01:31:25;5.15;;;2.10;;
53513;SDS011;39768;54.148;12.174;2023-05-02T01:35:29;3.00;;;2.13;;
53513;SDS011;39768;54.148;12.174;2023-05-02T01:39:33;4.68;;;2.55;;
53513;SDS011;39768;54.148;12.174;2023-05-02T01:43:36;7.65;;;3.20;;
53513;SDS011;39768;54.148;12.174;2023-05-02T01:47:39;7.32;;;3.05;;
53513;SDS011;39768;54.148;12.174;2023-05-02T01:51:45;6.38;;;3.55;;
53513;SDS011;39768;54.148;12.174;2023-05-02T01:55:48;5.13;;;3.05;;
53513;SDS011;39768;54.148;12.174;2023-05-02T01:59:51;9.27;;;3.42;;
53513;SDS011;39768;54.148;12.174;2023-05-02T02:03:55;4.35;;;3.35;;
53513;SDS011;39768;54.148;12.174;2023-05-02T02:07:58;8.80;;;2.95;;
53513;SDS011;39768;54.148;12.174;2023-05-02T02:12:01;5.75;;;3.40;;
53513;SDS011;39768;54.148;12.174;2023-05-02T02:16:07;8.48;;;3.47;;
53513;SDS011;39768;54.148;12.174;2023-05-02T02:20:12;4.80;;;3.08;;
53513;SDS011;39768;54.148;12.174;2023-05-02T02:24:16;5.40;;;2.97;;
53513;SDS011;39768;54.148;12.174;2023-05-02T02:28:21;8.50;;;3.10;;
53513;SDS011;39768;54.148;12.174;2023-05-02T02:32:22;5.50;;;2.90;;
53513;SDS011;39768;54.148;12.174;2023-05-02T02:40:33;4.07;;;3.13;;
53513;SDS011;39768;54.148;12.174;2023-05-02T02:48:49;9.88;;;4.10;;
53513;SDS011;39768;54.148;12.174;2023-05-02T02:53:03;10.93;;;5.10;;
53513;SDS011;39768;54.148;12.174;2023-05-02T02:57:14;11.23;;;5.75;;
53513;SDS011;39768;54.148;12.174;2023-05-02T03:01:19;5.13;;;3.90;;
53513;SDS011;39768;54.148;12.174;2023-05-02T03:05:22;9.38;;;3.42;;
53513;SDS011;39768;54.148;12.174;2023-05-02T03:09:24;7.90;;;4.03;;
53513;SDS011;39768;54.148;12.174;2023-05-02T03:13:30;7.20;;;4.20;;
53513;SDS011;39768;54.148;12.174;2023-05-02T03:17:32;8.32;;;3.22;;
53513;SDS011;39768;54.148;12.174;2023-05-02T03:21:34;8.40;;;4.85;;
53513;SDS011;39768;54.148;12.174;2023-05-02T03:25:43;10.85;;;4.38;;
53513;SDS011;39768;54.148;12.174;2023-05-02T03:29:50;4.78;;;3.33;;
53513;SDS011;39768;54.148;12.174;2023-05-02T03:33:52;6.13;;;2.83;;
53513;SDS011;39768;54.148;12.174;2023-05-02T03:37:55;2.47;;;1.42;;
53513;SDS011;39768;54.148;12.174;2023-05-02T03:41:57;3.25;;;2.85;;
53513;SDS011;39768;54.148;12.174;2023-05-02T03:46:03;6.70;;;2.83;;
53513;SDS011;39768;54.148;12.174;2023-05-02T03:50:09;2.97;;;1.85;;
53513;SDS011;39768;54.148;12.174;2023-05-02T03:54:11;4.28;;;1.13;;
53513;SDS011;39768;54.148;12.174;2023-05-02T03:58:15;11.55;;;2.70;;
53513;SDS011;39768;54.148;12.174;2023-05-02T04:02:18;4.07;;;1.90;;
53513;SDS011;39768;54.148;12.174;2023-05-02T04:06:22;4.70;;;2.75;;
53513;SDS011;39768;54.148;12.174;2023-05-02T04:10:30;3.35;;;3.10;;
53513;SDS011;39768;54.148;12.174;2023-05-02T04:14:35;6.28;;;2.78;;
53513;SDS011;39768;54.148;12.174;2023-05-02T04:18:37;4.47;;;2.08;;
53513;SDS011;39768;54.148;12.174;2023-05-02T04:22:40;9.93;;;2.00;;
53513;SDS011;39768;54.148;12.174;2023-05-02T04:26:42;11.82;;;3.25;;
53513;SDS011;39768;54.148;12.174;2023-05-02T04:30:47;7.55;;;3.20;;
53513;SDS011;39768;54.148;12.174;2023-05-02T04:34:51;6.32;;;2.67;;
53513;SDS011;39768;54.148;12.174;2023-05-02T04:38:54;16.73;;;3.25;;
53513;SDS011;39768;54.148;12.174;2023-05-02T04:42:55;5.85;;;2.83;;
53513;SDS011;39768;54.148;12.174;2023-05-02T04:47:03;6.57;;;2.67;;
53513;SDS011;39768;54.148;12.174;2023-05-02T04:51:05;2.53;;;1.60;;
53513;SDS011;39768;54.148;12.174;2023-05-02T04:55:06;8.57;;;1.75;;
53513;SDS011;39768;54.148;12.174;2023-05-02T04:59:08;3.30;;;2.20;;
53513;SDS011;39768;54.148;12.174;2023-05-02T05:03:11;2.00;;;1.80;;
53513;SDS011;39768;54.148;12.174;2023-05-02T05:07:12;1.75;;;1.40;;
53513;SDS011;39768;54.148;12.174;2023-05-02T05:11:15;1.95;;;1.55;;
53513;SDS011;39768;54.148;12.174;2023-05-02T05:15:17;3.92;;;1.83;;
53513;SDS011;39768;54.148;12.174;2023-05-02T05:19:28;2.88;;;1.48;;
53513;SDS011;39768;54.148;12.174;2023-05-02T05:23:31;2.45;;;1.90;;
53513;SDS011;39768;54.148;12.174;2023-05-02T05:27:34;2.72;;;2.35;;
53513;SDS011;39768;54.148;12.174;2023-05-02T05:31:36;4.18;;;2.35;;
53513;SDS011;39768;54.148;12.174;2023-05-02T05:35:39;8.20;;;1.45;;
53513;SDS011;39768;54.148;12.174;2023-05-02T05:39:40;4.93;;;2.55;;
53513;SDS011;39768;54.148;12.174;2023-05-02T05:43:43;6.88;;;1.65;;
53513;SDS011;39768;54.148;12.174;2023-05-02T05:47:44;1.92;;;1.52;;
53513;SDS011;39768;54.148;12.174;2023-05-02T05:51:46;3.95;;;1.75;;
53513;SDS011;39768;54.148;12.174;2023-05-02T05:55:49;3.25;;;1.70;;
53513;SDS011;39768;54.148;12.174;2023-05-02T05:59:52;2.10;;;1.92;;
53513;SDS011;39768;54.148;12.174;2023-05-02T06:03:54;2.92;;;1.48;;
53513;SDS011;39768;54.148;12.174;2023-05-02T06:07:56;5.95;;;2.53;;
53513;SDS011;39768;54.148;12.174;2023-05-02T06:12:00;1.17;;;1.13;;
53513;SDS011;39768;54.148;12.174;2023-05-02T06:16:04;4.28;;;2.20;;
53513;SDS011;39768;54.148;12.174;2023-05-02T06:20:06;2.70;;;2.20;;
53513;SDS011;39768;54.148;12.174;2023-05-02T06:24:09;3.50;;;1.98;;
53513;SDS011;39768;54.148;12.174;2023-05-02T06:28:11;2.75;;;2.50;;
53513;SDS011;39768;54.148;12.174;2023-05-02T06:32:12;5.53;;;1.55;;
53513;SDS011;39768;54.148;12.174;2023-05-02T06:36:14;1.95;;;1.75;;
53513;SDS011;39768;54.148;12.174;2023-05-02T06:40:15;3.47;;;1.55;;
53513;SDS011;39768;54.148;12.174;2023-05-02T06:44:16;5.90;;;2.20;;
53513;SDS011;39768;54.148;12.174;2023-05-02T06:48:18;1.98;;;1.27;;
53513;SDS011;39768;54.148;12.174;2023-05-02T06:52:20;5.15;;;2.15;;
53513;SDS011;39768;54.148;12.174;2023-05-02T06:56:22;1.73;;;1.52;;
53513;SDS011;39768;54.148;12.174;2023-05-02T07:00:25;1.15;;;0.70;;
53513;SDS011;39768;54.148;12.174;2023-05-02T07:04:27;6.25;;;1.00;;
53513;SDS011;39768;54.148;12.174;2023-05-02T07:08:29;2.15;;;1.92;;
53513;SDS011;39768;54.148;12.174;2023-05-02T07:12:30;4.25;;;2.40;;
53513;SDS011;39768;54.148;12.174;2023-05-02T07:16:32;1.27;;;1.15;;
53513;SDS011;39768;54.148;12.174;2023-05-02T07:20:33;3.40;;;1.77;;
53513;SDS011;39768;54.148;12.174;2023-05-02T07:24:35;8.57;;;1.42;;
53513;SDS011;39768;54.148;12.174;2023-05-02T07:28:37;3.95;;;0.65;;
53513;SDS011;39768;54.148;12.174;2023-05-02T07:32:38;2.13;;;1.95;;
53513;SDS011;39768;54.148;12.174;2023-05-02T07:36:39;2.40;;;1.58;;
53513;SDS011;39768;54.148;12.174;2023-05-02T07:40:41;2.25;;;1.70;;
53513;SDS011;39768;54.148;12.174;2023-05-02T07:44:43;1.30;;;1.10;;
53513;SDS011;39768;54.148;12.174;2023-05-02T07:48:45;3.60;;;1.08;;
53513;SDS011;39768;54.148;12.174;2023-05-02T07:52:46;3.55;;;1.38;;
53513;SDS011;39768;54.148;12.174;2023-05-02T07:56:48;1.50;;;1.20;;
53513;SDS011;39768;54.148;12.174;2023-05-02T08:00:49;3.40;;;1.55;;
53513;SDS011;39768;54.148;12.174;2023-05-02T08:04:51;1.65;;;1.55;;
53513;SDS011;39768;54.148;12.174;2023-05-02T08:08:52;3.35;;;1.35;;
53513;SDS011;39768;54.148;12.174;2023-05-02T08:12:54;2.42;;;1.25;;
53513;SDS011;39768;54.148;12.174;2023-05-02T08:16:56;1.58;;;1.42;;
53513;SDS011;39768;54.148;12.174;2023-05-02T08:20:59;5.57;;;1.40;;
53513;SDS011;39768;54.148;12.174;2023-05-02T08:25:00;1.33;;;0.95;;
53513;SDS011;39768;54.148;12.174;2023-05-02T08:29:02;1.40;;;1.15;;
53513;SDS011;39768;54.148;12.174;2023-05-02T08:33:04;1.55;;;1.25;;
53513;SDS011;39768;54.148;12.174;2023-05-02T08:37:09;1.17;;;1.08;;
53513;SDS011;39768;54.148;12.174;2023-05-02T08:41:15;4.95;;;1.40;;
53513;SDS011;39768;54.148;12.174;2023-05-02T08:45:18;1.52;;;1.00;;
53513;SDS011;39768;54.148;12.174;2023-05-02T08:49:21;1.05;;;1.05;;
53513;SDS011;39768;54.148;12.174;2023-05-02T08:53:23;5.32;;;1.58;;
53513;SDS011;39768;54.148;12.174;2023-05-02T08:57:25;1.30;;;1.13;;
53513;SDS011;39768;54.148;12.174;2023-05-02T09:01:29;1.65;;;1.55;;
53513;SDS011;39768;54.148;12.174;2023-05-02T09:05:36;2.95;;;1.20;;
53513;SDS011;39768;54.148;12.174;2023-05-02T09:09:41;2.42;;;1.40;;
53513;SDS011;39768;54.148;12.174;2023-05-02T09:13:46;3.63;;;0.73;;
53513;SDS011;39768;54.148;12.174;2023-05-02T09:17:48;3.50;;;1.35;;
53513;SDS011;39768;54.148;12.174;2023-05-02T09:21:50;4.97;;;1.02;;
53513;SDS011;39768;54.148;12.174;2023-05-02T09:25:51;3.85;;;1.42;;
53513;SDS011;39768;54.148;12.174;2023-05-02T09:30:01;1.17;;;0.85;;
53513;SDS011;39768;54.148;12.174;2023-05-02T09:34:24;0.65;;;0.65;;
53513;SDS011;39768;54.148;12.174;2023-05-02T09:38:26;0.90;;;0.70;;
53513;SDS011;39768;54.148;12.174;2023-05-02T09:42:30;2.78;;;0.88;;
53513;SDS011;39768;54.148;12.174;2023-05-02T09:46:38;1.63;;;1.15;;
53513;SDS011;39768;54.148;12.174;2023-05-02T09:50:45;1.65;;;1.55;;
53513;SDS011;39768;54.148;12.174;2023-05-02T09:54:47;0.75;;;0.65;;
53513;SDS011;39768;54.148;12.174;2023-05-02T09:58:50;0.85;;;0.77;;
53513;SDS011;39768;54.148;12.174;2023-05-02T10:02:52;3.03;;;1.55;;
53513;SDS011;39768;54.148;12.174;2023-05-02T10:06:54;2.58;;;1.40;;
53513;SDS011;39768;54.148;12.174;2023-05-02T10:10:57;4.32;;;1.17;;
53513;SDS011;39768;54.148;12.174;2023-05-02T10:14:59;1.08;;;0.90;;
53513;SDS011;39768;54.148;12.174;2023-05-02T10:19:10;0.88;;;0.80;;
53513;SDS011;39768;54.148;12.174;2023-05-02T10:23:13;4.03;;;0.63;;
53513;SDS011;39768;54.148;12.174;2023-05-02T10:27:15;1.42;;;1.20;;
53513;SDS011;39768;54.148;12.174;2023-05-02T10:31:17;3.75;;;1.02;;
53513;SDS011;39768;54.148;12.174;2023-05-02T10:35:19;0.77;;;0.77;;
53513;SDS011;39768;54.148;12.174;2023-05-02T10:39:21;1.48;;;0.90;;
53513;SDS011;39768;54.148;12.174;2023-05-02T10:43:26;0.95;;;0.82;;
53513;SDS011;39768;54.148;12.174;2023-05-02T10:47:31;1.83;;;1.20;;
53513;SDS011;39768;54.148;12.174;2023-05-02T10:51:33;2.42;;;1.33;;
53513;SDS011;39768;54.148;12.174;2023-05-02T10:55:36;5.10;;;1.48;;
53513;SDS011;39768;54.148;12.174;2023-05-02T10:59:38;1.33;;;0.68;;
53513;SDS011;39768;54.148;12.174;2023-05-02T11:03:53;2.95;;;1.38;;
53513;SDS011;39768;54.148;12.174;2023-05-02T11:17:21;1.67;;;1.20;;
53513;SDS011;39768;54.148;12.174;2023-05-02T11:21:25;3.00;;;1.45;;
53513;SDS011;39768;54.148;12.174;2023-05-02T11:25:34;1.52;;;0.73;;
53513;SDS011;39768;54.148;12.174;2023-05-02T11:29:56;2.42;;;1.33;;
53513;SDS011;39768;54.148;12.174;2023-05-02T11:33:59;1.30;;;1.10;;
53513;SDS011;39768;54.148;12.174;2023-05-02T11:38:03;1.73;;;1.25;;
53513;SDS011;39768;54.148;12.174;2023-05-02T11:42:10;1.60;;;0.80;;
53513;SDS011;39768;54.148;12.174;2023-05-02T11:46:29;1.55;;;1.30;;
53513;SDS011;39768;54.148;12.174;2023-05-02T11:50:32;1.77;;;1.15;;
53513;SDS011;39768;54.148;12.174;2023-05-02T11:54:34;1.30;;;0.63;;
53513;SDS011;39768;54.148;12.174;2023-05-02T11:58:36;1.17;;;1.08;;
53513;SDS011;39768;54.148;12.174;2023-05-02T12:02:41;1.08;;;0.77;;
53513;SDS011;39768;54.148;12.174;2023-05-02T12:06:53;1.73;;;0.82;;
53513;SDS011;39768;54.148;12.174;2023-05-02T12:10:56;1.38;;;0.90;;
53513;SDS011;39768;54.148;12.174;2023-05-02T12:15:02;2.17;;;0.95;;
53513;SDS011;39768;54.148;12.174;2023-05-02T12:19:07;0.93;;;0.93;;
53513;SDS011;39768;54.148;12.174;2023-05-02T12:23:09;4.07;;;1.30;;
53513;SDS011;39768;54.148;12.174;2023-05-02T12:27:12;2.38;;;1.30;;
53513;SDS011;39768;54.148;12.174;2023-05-02T12:31:15;0.95;;;0.93;;
53513;SDS011;39768;54.148;12.174;2023-05-02T12:35:20;1.20;;;1.08;;
53513;SDS011;39768;54.148;12.174;2023-05-02T12:39:36;7.72;;;1.38;;
53513;SDS011;39768;54.148;12.174;2023-05-02T12:43:41;1.83;;;1.10;;
53513;SDS011;39768;54.148;12.174;2023-05-02T12:47:46;2.08;;;1.40;;
53513;SDS011;39768;54.148;12.174;2023-05-02T12:51:51;1.63;;;1.50;;
53513;SDS011;39768;54.148;12.174;2023-05-02T12:56:02;1.75;;;1.65;;
53513;SDS011;39768;54.148;12.174;2023-05-02T13:00:05;3.40;;;1.10;;
53513;SDS011;39768;54.148;12.174;2023-05-02T13:04:07;0.98;;;0.90;;
53513;SDS011;39768;54.148;12.174;2023-05-02T13:08:08;1.85;;;1.42;;
53513;SDS011;39768;54.148;12.174;2023-05-02T13:12:10;2.42;;;1.40;;
53513;SDS011;39768;54.148;12.174;2023-05-02T13:16:11;1.75;;;1.05;;
53513;SDS011;39768;54.148;12.174;2023-05-02T13:20:13;1.63;;;1.23;;
53513;SDS011;39768;54.148;12.174;2023-05-02T13:24:15;1.38;;;1.27;;
53513;SDS011;39768;54.148;12.174;2023-05-02T13:28:17;1.63;;;1.30;;
53513;SDS011;39768;54.148;12.174;2023-05-02T13:32:19;0.80;;;0.77;;
53513;SDS011;39768;54.148;12.174;2023-05-02T13:36:21;1.20;;;1.10;;
53513;SDS011;39768;54.148;12.174;2023-05-02T13:40:24;1.42;;;1.10;;
53513;SDS011;39768;54.148;12.174;2023-05-02T13:44:26;1.38;;;1.05;;
53513;SDS011;39768;54.148;12.174;2023-05-02T13:48:27;1.45;;;0.93;;
53513;SDS011;39768;54.148;12.174;2023-05-02T13:52:30;2.65;;;1.02;;
53513;SDS011;39768;54.148;12.174;2023-05-02T13:56:31;8.98;;;0.77;;
53513;SDS011;39768;54.148;12.174;2023-05-02T14:00:33;1.00;;;0.90;;
53513;SDS011;39768;54.148;12.174;2023-05-02T14:04:35;3.38;;;1.20;;
53513;SDS011;39768;54.148;12.174;2023-05-02T14:08:36;2.55;;;1.23;;
53513;SDS011;39768;54.148;12.174;2023-05-02T14:12:38;1.80;;;1.10;;
53513;SDS011;39768;54.148;12.174;2023-05-02T14:16:39;2.63;;;1.20;;
53513;SDS011;39768;54.148;12.174;2023-05-02T14:20:41;4.65;;;1.58;;
53513;SDS011;39768;54.148;12.174;2023-05-02T14:24:43;1.88;;;1.52;;
53513;SDS011;39768;54.148;12.174;2023-05-02T14:28:44;1.33;;;1.23;;
53513;SDS011;39768;54.148;12.174;2023-05-02T14:32:46;1.85;;;1.10;;
53513;SDS011;39768;54.148;12.174;2023-05-02T14:36:48;2.15;;;1.20;;
53513;SDS011;39768;54.148;12.174;2023-05-02T14:40:49;1.58;;;1.48;;
53513;SDS011;39768;54.148;12.174;2023-05-02T14:44:51;2.35;;;0.82;;
53513;SDS011;39768;54.148;12.174;2023-05-02T14:48:53;0.88;;;0.88;;
53513;SDS011;39768;54.148;12.174;2023-05-02T14:52:55;1.63;;;0.85;;
53513;SDS011;39768;54.148;12.174;2023-05-02T14:56:56;2.80;;;1.50;;
53513;SDS011;39768;54.148;12.174;2023-05-02T15:00:59;1.88;;;0.95;;
53513;SDS011;39768;54.148;12.174;2023-05-02T15:05:02;1.50;;;1.40;;
53513;SDS011;39768;54.148;12.174;2023-05-02T15:09:05;1.48;;;0.80;;
53513;SDS011;39768;54.148;12.174;2023-05-02T15:13:07;6.95;;;1.30;;
53513;SDS011;39768;54.148;12.174;2023-05-02T15:17:09;5.13;;;1.13;;
53513;SDS011;39768;54.148;12.174;2023-05-02T15:21:10;1.88;;;1.63;;
53513;SDS011;39768;54.148;12.174;2023-05-02T15:25:12;5.03;;;1.00;;
53513;SDS011;39768;54.148;12.174;2023-05-02T15:29:13;0.95;;;0.52;;
53513;SDS011;39768;54.148;12.174;2023-05-02T15:33:15;1.63;;;1.13;;
53513;SDS011;39768;54.148;12.174;2023-05-02T15:37:16;2.25;;;1.27;;
53513;SDS011;39768;54.148;12.174;2023-05-02T15:41:18;1.63;;;1.05;;
53513;SDS011;39768;54.148;12.174;2023-05-02T15:45:19;1.27;;;0.75;;
53513;SDS011;39768;54.148;12.174;2023-05-02T15:49:21;0.85;;;0.70;;
53513;SDS011;39768;54.148;12.174;2023-05-02T15:53:24;3.75;;;1.05;;
53513;SDS011;39768;54.148;12.174;2023-05-02T15:57:26;3.05;;;1.10;;
53513;SDS011;39768;54.148;12.174;2023-05-02T16:01:27;1.42;;;0.98;;
53513;SDS011;39768;54.148;12.174;2023-05-02T16:05:29;2.03;;;1.25;;
53513;SDS011;39768;54.148;12.174;2023-05-02T16:09:31;1.95;;;1.42;;
53513;SDS011;39768;54.148;12.174;2023-05-02T16:13:32;1.38;;;0.93;;
53513;SDS011;39768;54.148;12.174;2023-05-02T16:17:34;1.52;;;1.42;;
53513;SDS011;39768;54.148;12.174;2023-05-02T16:21:36;1.75;;;1.65;;
53513;SDS011;39768;54.148;12.174;2023-05-02T16:25:37;1.25;;;1.15;;
53513;SDS011;39768;54.148;12.174;2023-05-02T16:29:39;2.55;;;1.45;;
53513;SDS011;39768;54.148;12.174;2023-05-02T16:33:40;3.60;;;1.30;;
53513;SDS011;39768;54.148;12.174;2023-05-02T16:37:43;1.25;;;1.15;;
53513;SDS011;39768;54.148;12.174;2023-05-02T16:41:44;0.65;;;0.65;;
53513;SDS011;39768;54.148;12.174;2023-05-02T16:45:45;4.50;;;1.00;;
53513;SDS011;39768;54.148;12.174;2023-05-02T16:49:51;2.25;;;0.75;;
53513;SDS011;39768;54.148;12.174;2023-05-02T16:53:53;5.20;;;1.88;;
53513;SDS011;39768;54.148;12.174;2023-05-02T16:57:55;2.03;;;0.73;;
53513;SDS011;39768;54.148;12.174;2023-05-02T17:01:56;1.80;;;0.55;;
53513;SDS011;39768;54.148;12.174;2023-05-02T17:05:58;1.55;;;1.20;;
53513;SDS011;39768;54.148;12.174;2023-05-02T17:10:01;2.92;;;1.20;;
53513;SDS011;39768;54.148;12.174;2023-05-02T17:14:04;2.40;;;1.40;;
53513;SDS011;39768;54.148;12.174;2023-05-02T17:18:06;2.00;;;0.85;;
53513;SDS011;39768;54.148;12.174;2023-05-02T17:22:08;2.08;;;1.35;;
53513;SDS011;39768;54.148;12.174;2023-05-02T17:26:10;3.38;;;1.77;;
53513;SDS011;39768;54.148;12.174;2023-05-02T17:30:15;5.38;;;1.27;;
53513;SDS011;39768;54.148;12.174;2023-05-02T17:34:17;1.17;;;0.90;;
53513;SDS011;39768;54.148;12.174;2023-05-02T17:38:18;1.35;;;1.10;;
53513;SDS011;39768;54.148;12.174;2023-05-02T17:42:20;1.25;;;0.82;;
53513;SDS011;39768;54.148;12.174;2023-05-02T17:46:21;2.17;;;1.02;;
53513;SDS011;39768;54.148;12.174;2023-05-02T17:50:23;2.83;;;1.15;;
53513;SDS011;39768;54.148;12.174;2023-05-02T17:54:25;1.95;;;1.17;;
53513;SDS011;39768;54.148;12.174;2023-05-02T17:58:26;1.35;;;1.23;;
53513;SDS011;39768;54.148;12.174;2023-05-02T18:02:28;1.23;;;1.20;;
53513;SDS011;39768;54.148;12.174;2023-05-02T18:06:30;1.95;;;1.05;;
53513;SDS011;39768;54.148;12.174;2023-05-02T18:10:36;1.02;;;0.93;;
53513;SDS011;39768;54.148;12.174;2023-05-02T18:14:38;1.45;;;1.35;;
53513;SDS011;39768;54.148;12.174;2023-05-02T18:18:39;4.45;;;1.17;;
53513;SDS011;39768;54.148;12.174;2023-05-02T18:22:41;5.43;;;0.82;;
53513;SDS011;39768;54.148;12.174;2023-05-02T18:26:43;2.40;;;1.17;;
53513;SDS011;39768;54.148;12.174;2023-05-02T18:30:44;1.38;;;0.60;;
53513;SDS011;39768;54.148;12.174;2023-05-02T18:34:46;0.38;;;0.38;;
53513;SDS011;39768;54.148;12.174;2023-05-02T18:38:48;4.13;;;0.88;;
53513;SDS011;39768;54.148;12.174;2023-05-02T18:42:50;1.90;;;0.80;;
53513;SDS011;39768;54.148;12.174;2023-05-02T18:46:51;1.50;;;1.33;;
53513;SDS011;39768;54.148;12.174;2023-05-02T18:50:56;2.40;;;1.90;;
53513;SDS011;39768;54.148;12.174;2023-05-02T18:54:58;1.02;;;1.02;;
53513;SDS011;39768;54.148;12.174;2023-05-02T18:59:00;2.05;;;1.02;;
53513;SDS011;39768;54.148;12.174;2023-05-02T19:03:04;4.47;;;1.40;;
53513;SDS011;39768;54.148;12.174;2023-05-02T19:07:06;4.70;;;1.08;;
53513;SDS011;39768;54.148;12.174;2023-05-02T19:11:07;0.60;;;0.60;;
53513;SDS011;39768;54.148;12.174;2023-05-02T19:15:09;2.60;;;0.60;;
53513;SDS011;39768;54.148;12.174;2023-05-02T19:19:11;0.80;;;0.73;;
53513;SDS011;39768;54.148;12.174;2023-05-02T19:23:13;0.77;;;0.77;;
53513;SDS011;39768;54.148;12.174;2023-05-02T19:27:20;1.25;;;1.08;;
53513;SDS011;39768;54.148;12.174;2023-05-02T19:31:22;2.20;;;0.75;;
53513;SDS011;39768;54.148;12.174;2023-05-02T19:35:23;3.13;;;1.20;;
53513;SDS011;39768;54.148;12.174;2023-05-02T19:39:25;0.77;;;0.77;;
53513;SDS011;39768;54.148;12.174;2023-05-02T19:43:28;0.73;;;0.73;;
53513;SDS011;39768;54.148;12.174;2023-05-02T19:47:30;1.08;;;0.80;;
53513;SDS011;39768;54.148;12.174;2023-05-02T19:51:33;1.00;;;0.90;;
53513;SDS011;39768;54.148;12.174;2023-05-02T19:55:35;1.85;;;0.80;;
53513;SDS011;39768;54.148;12.174;2023-05-02T19:59:37;0.75;;;0.63;;
53513;SDS011;39768;54.148;12.174;2023-05-02T20:03:38;0.60;;;0.60;;
53513;SDS011;39768;54.148;12.174;2023-05-02T20:07:40;1.95;;;0.75;;
53513;SDS011;39768;54.148;12.174;2023-05-02T20:11:41;3.50;;;1.25;;
53513;SDS011;39768;54.148;12.174;2023-05-02T20:15:43;1.15;;;1.05;;
53513;SDS011;39768;54.148;12.174;2023-05-02T20:19:44;1.00;;;0.82;;
53513;SDS011;39768;54.148;12.174;2023-05-02T20:23:46;1.58;;;1.27;;
53513;SDS011;39768;54.148;12.174;2023-05-02T20:27:48;2.10;;;1.00;;
53513;SDS011;39768;54.148;12.174;2023-05-02T20:31:50;1.95;;;1.20;;
53513;SDS011;39768;54.148;12.174;2023-05-02T20:35:54;1.95;;;0.80;;
53513;SDS011;39768;54.148;12.174;2023-05-02T20:39:56;1.23;;;1.13;;
53513;SDS011;39768;54.148;12.174;2023-05-02T20:43:57;0.88;;;0.88;;
53513;SDS011;39768;54.148;12.174;2023-05-02T20:48:01;0.60;;;0.60;;
53513;SDS011;39768;54.148;12.174;2023-05-02T20:52:03;2.28;;;1.40;;
53513;SDS011;39768;54.148;12.174;2023-05-02T20:56:05;8.15;;;0.80;;
53513;SDS011;39768;54.148;12.174;2023-05-02T21:00:07;7.15;;;0.98;;
53513;SDS011;39768;54.148;12.174;2023-05-02T21:04:11;1.55;;;1.08;;
53513;SDS011;39768;54.148;12.174;2023-05-02T21:08:13;2.70;;;1.35;;
53513;SDS011;39768;54.148;12.174;2023-05-02T21:12:14;0.95;;;0.95;;
53513;SDS011;39768;54.148;12.174;2023-05-02T21:16:16;2.40;;;0.95;;
53513;SDS011;39768;54.148;12.174;2023-05-02T21:20:19;4.30;;;1.60;;
53513;SDS011;39768;54.148;12.174;2023-05-02T21:24:20;7.30;;;1.50;;
53513;SDS011;39768;54.148;12.174;2023-05-02T21:28:22;4.60;;;0.85;;
53513;SDS011;39768;54.148;12.174;2023-05-02T21:32:23;1.70;;;0.90;;
53513;SDS011;39768;54.148;12.174;2023-05-02T21:36:26;5.85;;;1.63;;
53513;SDS011;39768;54.148;12.174;2023-05-02T21:40:27;2.80;;;1.00;;
53513;SDS011;39768;54.148;12.174;2023-05-02T21:44:31;2.15;;;1.17;;
53513;SDS011;39768;54.148;12.174;2023-05-02T21:48:33;1.73;;;1.50;;
53513;SDS011;39768;54.148;12.174;2023-05-02T21:52:34;1.92;;;0.68;;
53513;SDS011;39768;54.148;12.174;2023-05-02T21:56:36;1.75;;;1.65;;
53513;SDS011;39768;54.148;12.174;2023-05-02T22:00:38;1.52;;;1.42;;
53513;SDS011;39768;54.148;12.174;2023-05-02T22:04:40;0.88;;;0.88;;
53513;SDS011;39768;54.148;12.174;2023-05-02T22:08:43;1.85;;;1.00;;
53513;SDS011;39768;54.148;12.174;2023-05-02T22:12:45;2.85;;;1.15;;
53513;SDS011;39768;54.148;12.174;2023-05-02T22:16:46;2.38;;;0.90;;
53513;SDS011;39768;54.148;12.174;2023-05-02T22:20:48;0.90;;;0.90;;
53513;SDS011;39768;54.148;12.174;2023-05-02T22:24:49;4.60;;;1.70;;
53513;SDS011;39768;54.148;12.174;2023-05-02T22:28:51;3.08;;;1.75;;
53513;SDS011;39768;54.148;12.174;2023-05-02T22:32:53;7.28;;;1.75;;
53513;SDS011;39768;54.148;12.174;2023-05-02T22:36:54;1.10;;;0.90;;
53513;SDS011;39768;54.148;12.174;2023-05-02T22:40:56;1.30;;;1.20;;
53513;SDS011;39768;54.148;12.174;2023-05-02T22:44:57;1.33;;;1.23;;
53513;SDS011;39768;54.148;12.174;2023-05-02T22:48:59;1.63;;;1.42;;
53513;SDS011;39768;54.148;12.174;2023-05-02T22:53:00;0.90;;;0.90;;
53513;SDS011;39768;54.148;12.174;2023-05-02T22:57:04;5.05;;;1.70;;
53513;SDS011;39768;54.148;12.174;2023-05-02T23:01:06;1.92;;;1.75;;
53513;SDS011;39768;54.148;12.174;2023-05-02T23:05:07;7.07;;;2.00;;
53513;SDS011;39768;54.148;12.174;2023-05-02T23:09:09;1.00;;;1.00;;
53513;SDS011;39768;54.148;12.174;2023-05-02T23:13:11;3.33;;;0.90;;
53513;SDS011;39768;54.148;12.174;2023-05-02T23:17:12;1.73;;;1.15;;
53513;SDS011;39768;54.148;12.174;2023-05-02T23:21:14;1.33;;;1.20;;
53513;SDS011;39768;54.148;12.174;2023-05-02T23:25:16;2.65;;;0.80;;
53513;SDS011;39768;54.148;12.174;2023-05-02T23:29:18;1.88;;;1.20;;
53513;SDS011;39768;54.148;12.174;2023-05-02T23:33:20;1.40;;;1.30;;
53513;SDS011;39768;54.148;12.174;2023-05-02T23:37:21;5.13;;;1.27;;
53513;SDS011;39768;54.148;12.174;2023-05-02T23:41:23;1.35;;;1.27;;
53513;SDS011;39768;54.148;12.174;2023-05-02T23:45:26;2.05;;;1.05;;
53513;SDS011;39768;54.148;12.174;2023-05-02T23:49:27;2.72;;;1.55;;
53513;SDS011;39768;54.148;12.174;2023-05-02T23:53:29;1.60;;;1.13;;
53513;SDS011;39768;54.148;12.174;2023-05-02T23:57:30;2.58;;;0.57;;
